Time;durP1;ratioP1;P1;durP2;ratioP2;P2;SDS_P1;SDS_P2;PMS_P1;PMS_P2;Temp;Humidity;BMP_temperature;BMP_pressure;BME280_temperature;BME280_humidity;BME280_pressure;Samples;Min_cycle;Max_cycle;Signal;HPM_P1;HPM_P2
2023/01/22 00:02:04;;;;;;;3.22;0.80;;;;;;;;;;5045470;28;20033;-78
2023/01/22 00:04:30;;;;;;;1.65;0.98;;;;;;;;;;5049783;28;20166;-76
2023/01/22 00:06:56;;;;;;;1.15;0.95;;;;;;;;;;5056461;28;20599;-77
2023/01/22 00:09:22;;;;;;;1.42;0.70;;;;;;;;;;5049035;28;20060;-77
2023/01/22 00:11:48;;;;;;;2.20;0.95;;;;;;;;;;5060208;28;20043;-76
2023/01/22 00:14:15;;;;;;;1.85;0.80;;;;;;;;;;5050920;28;20140;-75
2023/01/22 00:16:41;;;;;;;1.27;0.90;;;;;;;;;;5046134;28;20044;-77
2023/01/22 00:19:07;;;;;;;2.50;0.80;;;;;;;;;;5052965;28;20396;-76
2023/01/22 00:21:33;;;;;;;1.15;0.80;;;;;;;;;;5052467;28;20029;-77
2023/01/22 00:24:00;;;;;;;0.60;0.60;;;;;;;;;;5051873;28;20078;-77
2023/01/22 00:26:26;;;;;;;1.02;0.80;;;;;;;;;;5052659;28;20031;-78
2023/01/22 00:28:52;;;;;;;1.83;1.05;;;;;;;;;;5045623;28;20060;-78
2023/01/22 00:31:18;;;;;;;0.98;0.98;;;;;;;;;;5049843;28;20017;-78
2023/01/22 00:33:45;;;;;;;1.42;0.85;;;;;;;;;;5052938;28;20366;-78
2023/01/22 00:36:13;;;;;;;2.35;1.05;;;;;;;;;;5056075;28;20051;-77
2023/01/22 00:38:39;;;;;;;2.88;0.90;;;;;;;;;;5045862;28;20090;-78
2023/01/22 00:41:06;;;;;;;1.50;0.90;;;;;;;;;;5060175;28;20072;-77
2023/01/22 00:43:33;;;;;;;1.45;0.77;;;;;;;;;;5056613;28;20020;-76
2023/01/22 00:45:59;;;;;;;0.90;0.68;;;;;;;;;;5048222;28;20029;-77
2023/01/22 00:48:25;;;;;;;1.27;0.77;;;;;;;;;;5055442;28;20029;-77
2023/01/22 00:50:51;;;;;;;1.95;1.05;;;;;;;;;;5062023;28;20135;-77
2023/01/22 00:53:17;;;;;;;2.55;0.90;;;;;;;;;;5043105;28;20103;-76
2023/01/22 00:55:53;;;;;;;3.40;0.90;;;;;;;;;;5054750;28;20139;-77
2023/01/22 00:58:19;;;;;;;2.20;0.90;;;;;;;;;;5041010;28;20509;-76
2023/01/22 01:00:45;;;;;;;1.08;0.70;;;;;;;;;;5053067;28;20063;-76
2023/01/22 01:03:26;;;;;;;1.10;0.70;;;;;;;;;;5051189;28;20535;-76
2023/01/22 01:05:56;;;;;;;0.98;0.70;;;;;;;;;;5050690;28;20033;-76
2023/01/22 01:08:22;;;;;;;3.03;0.80;;;;;;;;;;5059141;28;20062;-77
2023/01/22 01:10:49;;;;;;;0.70;0.70;;;;;;;;;;5064072;28;20036;-76
2023/01/22 01:13:15;;;;;;;0.80;0.80;;;;;;;;;;5055698;28;20036;-77
2023/01/22 01:15:42;;;;;;;0.57;0.57;;;;;;;;;;5058530;28;20040;-77
2023/01/22 01:18:11;;;;;;;1.05;0.73;;;;;;;;;;5048199;28;20067;-77
2023/01/22 01:20:37;;;;;;;1.45;0.80;;;;;;;;;;5047497;28;20546;-76
2023/01/22 01:23:03;;;;;;;0.80;0.80;;;;;;;;;;5045227;28;20112;-77
2023/01/22 01:25:29;;;;;;;1.02;0.60;;;;;;;;;;5045894;28;20025;-76
2023/01/22 01:27:55;;;;;;;0.75;0.70;;;;;;;;;;5065108;28;20070;-76
2023/01/22 01:30:21;;;;;;;0.70;0.70;;;;;;;;;;5058153;28;20257;-77
2023/01/22 01:32:48;;;;;;;1.20;0.80;;;;;;;;;;5054179;28;20032;-77
2023/01/22 01:35:14;;;;;;;0.80;0.70;;;;;;;;;;5049042;28;20028;-77
2023/01/22 01:37:42;;;;;;;0.43;0.43;;;;;;;;;;5047274;28;20128;-77
2023/01/22 01:40:09;;;;;;;0.60;0.60;;;;;;;;;;5052760;28;20499;-78
2023/01/22 01:42:38;;;;;;;1.25;1.00;;;;;;;;;;5057334;28;20035;-77
2023/01/22 01:45:22;;;;;;;1.35;0.80;;;;;;;;;;5046966;28;20035;-77
2023/01/22 01:47:51;;;;;;;2.25;0.90;;;;;;;;;;5049548;28;20040;-77
2023/01/22 01:50:18;;;;;;;0.90;0.60;;;;;;;;;;5048320;28;20399;-77
2023/01/22 01:52:44;;;;;;;0.77;0.77;;;;;;;;;;5053898;28;20032;-77
2023/01/22 01:55:11;;;;;;;2.30;0.63;;;;;;;;;;5050446;28;20028;-78
2023/01/22 01:57:38;;;;;;;1.33;0.85;;;;;;;;;;5052111;28;20021;-78
2023/01/22 02:00:09;;;;;;;0.50;0.50;;;;;;;;;;5046229;28;20032;-77
2023/01/22 02:02:35;;;;;;;0.60;0.60;;;;;;;;;;5053637;28;20698;-77
2023/01/22 02:05:01;;;;;;;0.77;0.63;;;;;;;;;;5054173;28;20119;-77
2023/01/22 02:07:27;;;;;;;0.60;0.60;;;;;;;;;;5057517;28;20025;-78
2023/01/22 02:09:53;;;;;;;0.85;0.70;;;;;;;;;;5060418;28;20036;-78
2023/01/22 02:12:19;;;;;;;1.35;0.60;;;;;;;;;;5053890;28;20058;-77
2023/01/22 02:14:45;;;;;;;0.47;0.47;;;;;;;;;;5055272;28;20021;-77
2023/01/22 02:17:13;;;;;;;0.90;0.63;;;;;;;;;;5040321;28;20037;-77
2023/01/22 02:19:40;;;;;;;2.03;0.70;;;;;;;;;;5043456;28;20021;-77
2023/01/22 02:22:11;;;;;;;1.08;0.70;;;;;;;;;;5053873;28;20033;-77
2023/01/22 02:24:37;;;;;;;0.63;0.60;;;;;;;;;;5053865;28;20092;-77
2023/01/22 02:27:03;;;;;;;1.25;0.60;;;;;;;;;;5046040;28;20020;-77
2023/01/22 02:29:29;;;;;;;0.73;0.45;;;;;;;;;;5051318;28;20552;-77
2023/01/22 02:31:55;;;;;;;0.65;0.45;;;;;;;;;;5048388;28;20028;-77
2023/01/22 02:34:23;;;;;;;0.75;0.60;;;;;;;;;;5063349;28;20510;-77
2023/01/22 02:36:49;;;;;;;1.52;0.47;;;;;;;;;;5055742;28;20570;-78
2023/01/22 02:39:15;;;;;;;0.35;0.35;;;;;;;;;;5059004;28;20419;-78
2023/01/22 02:41:41;;;;;;;0.60;0.60;;;;;;;;;;5055619;28;20039;-77
2023/01/22 02:44:07;;;;;;;1.80;0.60;;;;;;;;;;5050256;28;20548;-77
2023/01/22 02:46:33;;;;;;;0.55;0.55;;;;;;;;;;5045279;28;20136;-77
2023/01/22 02:48:59;;;;;;;0.55;0.55;;;;;;;;;;5053947;28;20025;-76
2023/01/22 02:51:25;;;;;;;0.40;0.40;;;;;;;;;;5046861;28;20091;-77
2023/01/22 02:53:51;;;;;;;0.57;0.57;;;;;;;;;;5055018;28;20032;-77
2023/01/22 02:56:17;;;;;;;0.50;0.50;;;;;;;;;;5053383;28;20218;-76
2023/01/22 02:58:44;;;;;;;1.55;0.70;;;;;;;;;;5041215;28;20438;-77
2023/01/22 03:01:19;;;;;;;0.60;0.60;;;;;;;;;;5053598;28;20028;-76
2023/01/22 03:03:49;;;;;;;0.85;0.63;;;;;;;;;;5053345;28;20029;-76
2023/01/22 03:06:20;;;;;;;0.52;0.50;;;;;;;;;;5059876;28;20552;-77
2023/01/22 03:08:46;;;;;;;1.45;0.68;;;;;;;;;;5058628;28;20025;-77
2023/01/22 03:11:12;;;;;;;0.65;0.57;;;;;;;;;;5060164;28;21819;-76
2023/01/22 03:21:52;;;;;;;0.60;0.50;;;;;;;;;;5051475;28;20048;-76
2023/01/22 03:24:18;;;;;;;1.27;0.52;;;;;;;;;;5049086;28;20025;-76
2023/01/22 03:26:44;;;;;;;0.73;0.60;;;;;;;;;;5052107;28;20532;-76
2023/01/22 03:29:10;;;;;;;1.00;0.60;;;;;;;;;;5052724;28;20459;-76
2023/01/22 03:31:36;;;;;;;0.68;0.60;;;;;;;;;;5043812;28;20133;-76
2023/01/22 03:34:02;;;;;;;1.75;0.57;;;;;;;;;;5045587;28;20040;-76
2023/01/22 03:36:28;;;;;;;0.90;0.70;;;;;;;;;;5051064;28;20019;-76
2023/01/22 03:38:54;;;;;;;0.40;0.40;;;;;;;;;;5047822;28;20481;-77
2023/01/22 03:41:20;;;;;;;0.50;0.47;;;;;;;;;;5055552;28;20041;-76
2023/01/22 03:43:46;;;;;;;0.50;0.50;;;;;;;;;;5053880;28;20091;-77
2023/01/22 03:46:16;;;;;;;1.10;0.70;;;;;;;;;;5045915;28;20025;-76
2023/01/22 03:48:42;;;;;;;0.63;0.60;;;;;;;;;;5049061;28;20044;-77
2023/01/22 03:51:12;;;;;;;0.77;0.70;;;;;;;;;;5062716;28;20100;-76
2023/01/22 03:53:39;;;;;;;0.73;0.60;;;;;;;;;;5058080;28;20486;-77
2023/01/22 03:56:06;;;;;;;0.75;0.60;;;;;;;;;;5053571;28;20036;-77
2023/01/22 03:58:32;;;;;;;1.67;0.60;;;;;;;;;;5050568;28;20504;-76
2023/01/22 04:01:02;;;;;;;0.68;0.60;;;;;;;;;;5056078;28;20079;-76
2023/01/22 04:03:28;;;;;;;0.88;0.63;;;;;;;;;;5055883;28;20032;-76
2023/01/22 04:05:54;;;;;;;0.68;0.57;;;;;;;;;;5056768;28;20064;-76
2023/01/22 04:08:21;;;;;;;0.77;0.60;;;;;;;;;;5060417;28;20075;-76
2023/01/22 04:10:47;;;;;;;2.25;0.43;;;;;;;;;;5054090;28;20029;-77
2023/01/22 04:13:13;;;;;;;0.25;0.25;;;;;;;;;;5059001;28;20132;-75
2023/01/22 04:15:42;;;;;;;0.50;0.50;;;;;;;;;;5064323;28;20035;-75
2023/01/22 04:18:08;;;;;;;0.45;0.40;;;;;;;;;;5066183;28;20361;-76
2023/01/22 04:20:34;;;;;;;0.40;0.40;;;;;;;;;;5054118;28;20086;-76
2023/01/22 04:23:00;;;;;;;0.60;0.60;;;;;;;;;;5066435;28;20577;-76
2023/01/22 04:25:26;;;;;;;0.40;0.40;;;;;;;;;;5054338;28;20052;-76
2023/01/22 04:27:51;;;;;;;0.98;0.68;;;;;;;;;;5054837;28;20016;-76
2023/01/22 04:30:17;;;;;;;0.50;0.45;;;;;;;;;;5058170;28;20492;-76
2023/01/22 04:32:44;;;;;;;0.50;0.50;;;;;;;;;;5055785;28;20028;-76
2023/01/22 04:35:10;;;;;;;0.47;0.47;;;;;;;;;;5058726;28;20048;-76
2023/01/22 04:37:35;;;;;;;1.15;0.68;;;;;;;;;;5050431;28;20035;-76
2023/01/22 04:40:04;;;;;;;0.82;0.55;;;;;;;;;;5056901;28;20033;-76
2023/01/22 04:42:30;;;;;;;1.13;0.75;;;;;;;;;;5055542;28;20094;-76
2023/01/22 04:44:56;;;;;;;0.50;0.50;;;;;;;;;;5056813;28;20504;-76
2023/01/22 04:47:22;;;;;;;0.40;0.40;;;;;;;;;;5056880;28;20336;-76
2023/01/22 04:49:48;;;;;;;0.50;0.50;;;;;;;;;;5063607;28;20116;-75
2023/01/22 04:52:14;;;;;;;0.43;0.43;;;;;;;;;;5066073;28;20025;-75
2023/01/22 04:54:40;;;;;;;0.47;0.47;;;;;;;;;;5055160;28;20043;-75
2023/01/22 04:57:06;;;;;;;0.90;0.60;;;;;;;;;;5058210;28;20025;-75
2023/01/22 04:59:32;;;;;;;0.95;0.70;;;;;;;;;;5056130;28;20021;-75
2023/01/22 05:01:58;;;;;;;0.82;0.50;;;;;;;;;;5057370;28;20393;-76
2023/01/22 05:04:24;;;;;;;0.50;0.50;;;;;;;;;;5067010;28;20042;-76
2023/01/22 05:06:50;;;;;;;0.60;0.60;;;;;;;;;;5053768;28;20025;-75
2023/01/22 05:09:16;;;;;;;0.50;0.50;;;;;;;;;;5061457;28;20025;-75
2023/01/22 05:11:42;;;;;;;0.60;0.60;;;;;;;;;;5060288;28;20032;-75
2023/01/22 05:14:08;;;;;;;0.60;0.60;;;;;;;;;;5062968;28;20129;-76
2023/01/22 05:16:34;;;;;;;0.50;0.50;;;;;;;;;;5068739;28;20493;-76
2023/01/22 05:19:00;;;;;;;0.60;0.52;;;;;;;;;;5054194;28;20032;-76
2023/01/22 05:21:26;;;;;;;0.47;0.43;;;;;;;;;;5062929;28;20078;-76
2023/01/22 05:23:52;;;;;;;1.30;0.70;;;;;;;;;;5051358;28;20516;-76
2023/01/22 05:26:18;;;;;;;0.77;0.60;;;;;;;;;;5050711;28;20047;-76
2023/01/22 05:28:44;;;;;;;0.65;0.47;;;;;;;;;;5047136;28;20076;-76
2023/01/22 05:31:10;;;;;;;0.85;0.60;;;;;;;;;;5048543;28;20606;-76
2023/01/22 05:33:38;;;;;;;0.50;0.50;;;;;;;;;;5064049;28;20037;-76
2023/01/22 05:36:04;;;;;;;0.60;0.60;;;;;;;;;;5058940;28;20028;-76
2023/01/22 05:38:30;;;;;;;0.70;0.50;;;;;;;;;;5052356;28;20086;-76
2023/01/22 05:40:56;;;;;;;0.63;0.63;;;;;;;;;;5055704;28;20116;-78
2023/01/22 05:43:22;;;;;;;0.57;0.57;;;;;;;;;;5058386;28;20025;-75
2023/01/22 05:45:48;;;;;;;0.75;0.75;;;;;;;;;;5062670;28;20036;-76
2023/01/22 05:48:14;;;;;;;0.52;0.52;;;;;;;;;;5066842;28;20032;-77
2023/01/22 05:50:40;;;;;;;0.50;0.50;;;;;;;;;;5055846;28;20020;-76
2023/01/22 05:53:06;;;;;;;0.50;0.50;;;;;;;;;;5058191;28;20025;-76
2023/01/22 05:55:35;;;;;;;1.70;0.50;;;;;;;;;;5056249;28;20017;-77
2023/01/22 05:58:01;;;;;;;1.02;0.40;;;;;;;;;;5057340;28;20033;-76
2023/01/22 06:00:28;;;;;;;0.52;0.43;;;;;;;;;;5063152;28;20035;-76
2023/01/22 06:02:55;;;;;;;0.50;0.50;;;;;;;;;;5061936;28;20039;-77
2023/01/22 06:05:21;;;;;;;0.50;0.50;;;;;;;;;;5066396;28;20435;-76
2023/01/22 06:07:47;;;;;;;0.70;0.52;;;;;;;;;;5063355;28;20032;-76
2023/01/22 06:10:13;;;;;;;0.63;0.60;;;;;;;;;;5056959;28;20476;-76
2023/01/22 06:12:39;;;;;;;0.55;0.55;;;;;;;;;;5054800;28;20048;-76
2023/01/22 06:15:05;;;;;;;0.80;0.60;;;;;;;;;;5062318;28;20032;-76
2023/01/22 06:17:31;;;;;;;0.52;0.52;;;;;;;;;;5051251;28;20752;-76
2023/01/22 06:19:57;;;;;;;0.57;0.50;;;;;;;;;;5063725;28;20033;-76
2023/01/22 06:22:23;;;;;;;0.75;0.57;;;;;;;;;;5064544;28;20090;-77
2023/01/22 06:24:49;;;;;;;0.50;0.50;;;;;;;;;;5055521;28;20123;-74
2023/01/22 06:27:15;;;;;;;0.50;0.50;;;;;;;;;;5049868;28;20543;-75
2023/01/22 06:29:41;;;;;;;0.45;0.40;;;;;;;;;;5049483;28;20114;-79
2023/01/22 06:32:07;;;;;;;0.80;0.80;;;;;;;;;;5049979;28;20028;-77
2023/01/22 06:34:33;;;;;;;0.50;0.50;;;;;;;;;;5056085;28;20021;-79
2023/01/22 06:36:59;;;;;;;0.47;0.47;;;;;;;;;;5062281;28;20111;-79
2023/01/22 06:39:25;;;;;;;0.45;0.45;;;;;;;;;;5062642;28;20056;-80
2023/01/22 06:41:51;;;;;;;0.90;0.70;;;;;;;;;;5053013;28;20040;-79
2023/01/22 06:44:17;;;;;;;1.08;0.63;;;;;;;;;;5052845;28;21325;-79
2023/01/22 06:46:44;;;;;;;1.48;0.40;;;;;;;;;;5068955;28;20043;-79
2023/01/22 06:49:10;;;;;;;0.60;0.43;;;;;;;;;;5062609;28;20103;-81
2023/01/22 06:51:36;;;;;;;0.50;0.43;;;;;;;;;;5055935;28;20021;-80
2023/01/22 06:54:02;;;;;;;0.60;0.60;;;;;;;;;;5054602;28;20039;-80
2023/01/22 06:56:28;;;;;;;0.60;0.60;;;;;;;;;;5067267;28;20034;-80
2023/01/22 06:58:55;;;;;;;2.28;0.55;;;;;;;;;;5060953;28;20469;-80
2023/01/22 07:01:21;;;;;;;1.45;0.50;;;;;;;;;;5060279;28;20120;-79
2023/01/22 07:03:47;;;;;;;0.70;0.70;;;;;;;;;;5063033;28;20480;-76
2023/01/22 07:06:13;;;;;;;0.68;0.63;;;;;;;;;;5064325;28;20027;-74
2023/01/22 07:08:40;;;;;;;0.60;0.60;;;;;;;;;;5065167;28;20495;-74
2023/01/22 07:11:06;;;;;;;0.65;0.60;;;;;;;;;;5055784;28;20847;-75
2023/01/22 07:13:32;;;;;;;0.68;0.68;;;;;;;;;;5048583;28;20056;-76
2023/01/22 07:16:01;;;;;;;1.55;1.05;;;;;;;;;;5051453;28;20547;-75
2023/01/22 07:18:27;;;;;;;0.85;0.60;;;;;;;;;;5067307;28;20028;-75
2023/01/22 07:20:53;;;;;;;0.50;0.50;;;;;;;;;;5063198;28;20032;-83
2023/01/22 07:23:19;;;;;;;0.63;0.60;;;;;;;;;;5065391;28;20032;-77
2023/01/22 07:25:45;;;;;;;1.40;0.80;;;;;;;;;;5055464;28;20469;-78
2023/01/22 07:28:13;;;;;;;0.75;0.75;;;;;;;;;;5057919;28;20552;-77
2023/01/22 07:30:40;;;;;;;1.25;0.90;;;;;;;;;;5050810;28;20108;-80
2023/01/22 07:33:06;;;;;;;0.52;0.52;;;;;;;;;;5059544;28;20033;-80
2023/01/22 07:35:32;;;;;;;0.77;0.77;;;;;;;;;;5055782;28;20025;-81
2023/01/22 07:37:59;;;;;;;1.58;0.95;;;;;;;;;;5053672;28;20416;-81
2023/01/22 07:40:25;;;;;;;0.68;0.68;;;;;;;;;;5054189;28;20013;-84
2023/01/22 07:42:51;;;;;;;0.55;0.55;;;;;;;;;;5062213;28;20087;-78
2023/01/22 07:45:21;;;;;;;0.82;0.75;;;;;;;;;;5061211;28;20112;-81
2023/01/22 07:47:53;;;;;;;0.82;0.75;;;;;;;;;;5052864;28;20086;-84
2023/01/22 07:50:23;;;;;;;1.27;0.73;;;;;;;;;;5061254;28;20128;-83
2023/01/22 07:52:49;;;;;;;0.70;0.70;;;;;;;;;;5063283;28;20039;-79
2023/01/22 07:55:15;;;;;;;1.50;0.93;;;;;;;;;;5067270;28;20029;-78
2023/01/22 07:57:41;;;;;;;1.10;1.00;;;;;;;;;;5069431;28;20055;-76
2023/01/22 08:00:11;;;;;;;1.48;1.08;;;;;;;;;;5053331;28;20100;-82
2023/01/22 08:02:38;;;;;;;4.53;0.90;;;;;;;;;;5052848;28;20025;-79
2023/01/22 08:05:04;;;;;;;3.63;0.93;;;;;;;;;;5050878;28;20417;-76
2023/01/22 08:07:30;;;;;;;1.13;0.85;;;;;;;;;;5054086;28;20392;-80
2023/01/22 08:09:56;;;;;;;1.20;0.98;;;;;;;;;;5055215;28;20590;-79
2023/01/22 08:12:22;;;;;;;1.70;1.02;;;;;;;;;;5054379;28;20123;-80
2023/01/22 08:14:48;;;;;;;2.10;1.00;;;;;;;;;;5055571;28;20029;-80
2023/01/22 08:17:14;;;;;;;4.55;0.82;;;;;;;;;;5067441;28;20048;-80
2023/01/22 08:19:40;;;;;;;0.95;0.95;;;;;;;;;;5050848;28;20037;-80
2023/01/22 08:22:06;;;;;;;1.50;1.08;;;;;;;;;;5061663;28;20028;-80
2023/01/22 08:24:35;;;;;;;1.27;1.00;;;;;;;;;;5059174;28;20107;-80
2023/01/22 08:27:01;;;;;;;2.15;1.10;;;;;;;;;;5052042;28;20055;-81
2023/01/22 08:29:27;;;;;;;1.45;0.85;;;;;;;;;;5050768;28;20012;-86
2023/01/22 08:31:54;;;;;;;1.48;0.90;;;;;;;;;;5053323;28;20456;-76
2023/01/22 08:34:21;;;;;;;3.08;1.00;;;;;;;;;;5068992;28;20180;-80
2023/01/22 08:36:47;;;;;;;1.33;1.13;;;;;;;;;;5058681;28;20036;-81
2023/01/22 08:39:13;;;;;;;1.50;1.08;;;;;;;;;;5060742;28;20021;-80
2023/01/22 08:41:40;;;;;;;2.72;1.35;;;;;;;;;;5058002;28;20033;-80
2023/01/22 08:44:06;;;;;;;1.27;0.98;;;;;;;;;;5066258;28;20111;-79
2023/01/22 08:46:34;;;;;;;0.80;0.80;;;;;;;;;;5063768;28;20063;-79
2023/01/22 08:49:00;;;;;;;1.25;0.98;;;;;;;;;;5052037;28;20513;-80
2023/01/22 08:51:26;;;;;;;3.53;0.98;;;;;;;;;;5059915;28;20031;-80
2023/01/22 08:53:52;;;;;;;0.93;0.82;;;;;;;;;;5061113;28;20436;-79
2023/01/22 08:56:18;;;;;;;2.75;1.10;;;;;;;;;;5057111;28;20029;-80
2023/01/22 08:58:47;;;;;;;1.40;0.80;;;;;;;;;;5050726;28;20029;-80
2023/01/22 09:01:15;;;;;;;2.47;1.10;;;;;;;;;;5057257;28;20020;-82
2023/01/22 09:03:42;;;;;;;1.15;1.00;;;;;;;;;;5051890;28;20133;-81
2023/01/22 09:06:08;;;;;;;1.38;1.17;;;;;;;;;;5054277;28;20032;-80
2023/01/22 09:08:34;;;;;;;1.60;1.05;;;;;;;;;;5051794;28;20028;-81
2023/01/22 09:11:00;;;;;;;1.52;0.95;;;;;;;;;;5056433;28;20111;-83
2023/01/22 09:13:26;;;;;;;1.23;0.88;;;;;;;;;;5056092;28;20041;-80
2023/01/22 09:15:55;;;;;;;1.40;0.90;;;;;;;;;;5051164;28;20500;-80
2023/01/22 09:18:21;;;;;;;5.78;1.50;;;;;;;;;;5052852;28;20047;-80
2023/01/22 09:20:47;;;;;;;0.85;0.70;;;;;;;;;;5051218;28;20116;-79
2023/01/22 09:23:12;;;;;;;1.30;1.05;;;;;;;;;;5054280;28;20029;-79
2023/01/22 09:25:39;;;;;;;1.17;0.93;;;;;;;;;;5057234;28;20037;-81
2023/01/22 09:28:07;;;;;;;1.50;1.13;;;;;;;;;;5058329;28;20489;-79
2023/01/22 09:30:33;;;;;;;1.52;1.00;;;;;;;;;;5052040;28;20029;-82
2023/01/22 09:32:59;;;;;;;3.25;1.08;;;;;;;;;;5052487;28;20083;-83
2023/01/22 09:35:26;;;;;;;1.75;1.25;;;;;;;;;;5051813;28;20025;-84
2023/01/22 09:37:52;;;;;;;1.48;1.10;;;;;;;;;;5057901;28;20446;-80
2023/01/22 09:40:41;;;;;;;1.48;1.02;;;;;;;;;;5052608;28;20025;-83
2023/01/22 09:43:18;;;;;;;3.80;1.00;;;;;;;;;;5044892;28;20044;-80
2023/01/22 09:45:44;;;;;;;1.27;1.15;;;;;;;;;;5059141;28;20496;-81
2023/01/22 09:48:13;;;;;;;2.25;1.40;;;;;;;;;;5060375;28;20515;-81
2023/01/22 09:50:40;;;;;;;1.70;1.35;;;;;;;;;;5049011;28;20033;-81
2023/01/22 09:53:07;;;;;;;2.00;1.45;;;;;;;;;;5048388;28;20456;-80
2023/01/22 09:55:38;;;;;;;1.70;1.33;;;;;;;;;;5053262;28;20040;-81
2023/01/22 09:58:06;;;;;;;2.05;1.17;;;;;;;;;;5058436;28;20125;-84
2023/01/22 10:00:40;;;;;;;1.98;1.17;;;;;;;;;;5060475;28;20043;-76
2023/01/22 10:03:10;;;;;;;3.45;1.30;;;;;;;;;;5054218;28;20032;-80
2023/01/22 10:05:43;;;;;;;3.38;1.70;;;;;;;;;;5043780;28;20039;-80
2023/01/22 10:08:14;;;;;;;2.55;1.65;;;;;;;;;;5049739;28;20121;-80
2023/01/22 10:10:40;;;;;;;2.13;1.20;;;;;;;;;;5054650;28;20077;-83
2023/01/22 10:13:10;;;;;;;1.63;1.30;;;;;;;;;;5044949;28;20049;-83
2023/01/22 10:15:37;;;;;;;4.32;1.35;;;;;;;;;;5052739;28;20654;-81
2023/01/22 10:18:08;;;;;;;2.20;1.60;;;;;;;;;;5044765;28;20025;-83
2023/01/22 10:20:34;;;;;;;2.83;1.52;;;;;;;;;;5050197;28;20028;-82
2023/01/22 10:23:08;;;;;;;3.58;1.40;;;;;;;;;;5054677;28;20624;-83
2023/01/22 10:25:34;;;;;;;1.63;1.25;;;;;;;;;;5053905;28;20029;-82
2023/01/22 10:28:02;;;;;;;2.53;1.60;;;;;;;;;;5059283;28;20024;-82
2023/01/22 10:30:29;;;;;;;2.00;1.50;;;;;;;;;;5057925;28;20025;-84
2023/01/22 10:32:59;;;;;;;3.17;1.50;;;;;;;;;;5058789;28;20028;-82
2023/01/22 10:35:25;;;;;;;1.88;1.40;;;;;;;;;;5056625;28;20064;-81
2023/01/22 10:37:53;;;;;;;3.13;1.77;;;;;;;;;;5057291;28;20098;-82
2023/01/22 10:40:22;;;;;;;1.58;1.30;;;;;;;;;;5060544;28;20520;-82
2023/01/22 10:42:59;;;;;;;2.80;1.60;;;;;;;;;;5051965;28;20081;-83
2023/01/22 10:45:25;;;;;;;2.65;1.30;;;;;;;;;;5064239;28;20115;-82
2023/01/22 10:47:51;;;;;;;1.65;1.50;;;;;;;;;;5052398;28;20495;-83
2023/01/22 10:50:18;;;;;;;4.03;1.38;;;;;;;;;;5061423;28;20017;-81
2023/01/22 10:52:48;;;;;;;1.60;1.30;;;;;;;;;;5059329;28;20029;-81
2023/01/22 10:55:20;;;;;;;3.72;1.58;;;;;;;;;;5053370;28;20025;-82
2023/01/22 10:57:49;;;;;;;2.70;1.50;;;;;;;;;;5059746;28;20028;-79
2023/01/22 11:00:15;;;;;;;2.65;1.60;;;;;;;;;;5051351;28;20052;-78
2023/01/22 11:02:42;;;;;;;4.13;2.22;;;;;;;;;;5058217;28;20122;-81
2023/01/22 11:05:16;;;;;;;2.33;1.60;;;;;;;;;;5053564;28;20020;-81
2023/01/22 11:07:43;;;;;;;1.80;1.30;;;;;;;;;;5053890;28;20040;-82
2023/01/22 11:10:16;;;;;;;1.67;1.35;;;;;;;;;;5058898;28;20063;-81
2023/01/22 11:12:45;;;;;;;1.58;1.25;;;;;;;;;;5057487;28;20128;-82
2023/01/22 11:15:24;;;;;;;2.63;1.38;;;;;;;;;;5055391;28;20090;-78
2023/01/22 11:17:51;;;;;;;3.47;1.08;;;;;;;;;;5058068;28;20028;-74
2023/01/22 11:20:17;;;;;;;1.58;1.30;;;;;;;;;;5048639;28;20407;-74
2023/01/22 11:22:49;;;;;;;4.15;1.38;;;;;;;;;;5058199;28;20028;-71
2023/01/22 11:25:15;;;;;;;4.20;1.42;;;;;;;;;;5064695;28;20388;-72
2023/01/22 11:27:45;;;;;;;2.17;1.52;;;;;;;;;;5057940;28;20025;-76
2023/01/22 11:30:36;;;;;;;2.50;1.85;;;;;;;;;;5056893;28;20020;-81
2023/01/22 11:33:14;;;;;;;2.80;2.00;;;;;;;;;;5056280;28;20534;-77
2023/01/22 11:35:47;;;;;;;3.83;1.92;;;;;;;;;;5050174;28;20021;-78
2023/01/22 11:38:18;;;;;;;3.38;1.80;;;;;;;;;;5048824;28;20021;-75
2023/01/22 11:40:47;;;;;;;3.53;2.08;;;;;;;;;;5048351;28;20032;-75
2023/01/22 11:43:32;;;;;;;3.85;2.17;;;;;;;;;;5053221;28;20437;-73
2023/01/22 11:46:13;;;;;;;5.15;1.83;;;;;;;;;;5062408;28;20099;-76
2023/01/22 11:48:44;;;;;;;5.05;1.70;;;;;;;;;;5057459;28;20114;-75
2023/01/22 11:51:12;;;;;;;3.78;1.98;;;;;;;;;;5044036;28;20036;-75
2023/01/22 11:53:57;;;;;;;2.17;1.58;;;;;;;;;;5055205;28;20480;-75
2023/01/22 11:56:34;;;;;;;2.10;1.75;;;;;;;;;;5047876;28;20037;-76
2023/01/22 11:59:18;;;;;;;3.83;1.50;;;;;;;;;;5055666;28;20087;-75
2023/01/22 12:01:44;;;;;;;2.15;1.63;;;;;;;;;;5049838;28;20043;-74
2023/01/22 12:04:18;;;;;;;2.75;1.55;;;;;;;;;;5060022;28;20036;-76
2023/01/22 12:06:47;;;;;;;3.47;1.67;;;;;;;;;;5056436;28;20185;-75
2023/01/22 12:09:33;;;;;;;3.05;1.30;;;;;;;;;;5052058;28;20028;-75
2023/01/22 12:12:13;;;;;;;2.00;1.45;;;;;;;;;;5047290;28;20045;-73
2023/01/22 12:15:00;;;;;;;1.80;1.30;;;;;;;;;;5047642;28;20024;-74
2023/01/22 12:17:40;;;;;;;3.00;1.67;;;;;;;;;;5056940;28;20040;-76
2023/01/22 12:20:15;;;;;;;3.47;1.35;;;;;;;;;;5058946;28;20029;-75
2023/01/22 12:22:41;;;;;;;1.70;1.35;;;;;;;;;;5060668;28;20036;-75
2023/01/22 12:25:36;;;;;;;2.72;1.90;;;;;;;;;;5063020;28;20035;-75
2023/01/22 12:28:14;;;;;;;4.22;1.88;;;;;;;;;;5049735;28;20036;-75
2023/01/22 12:30:44;;;;;;;3.05;1.70;;;;;;;;;;5059756;28;20028;-74
2023/01/22 12:33:12;;;;;;;6.05;1.65;;;;;;;;;;5063306;28;20038;-76
2023/01/22 12:35:38;;;;;;;1.60;1.40;;;;;;;;;;5058819;28;20706;-76
2023/01/22 12:38:07;;;;;;;2.15;1.45;;;;;;;;;;5057853;28;20507;-76
2023/01/22 12:40:52;;;;;;;2.75;1.65;;;;;;;;;;5059493;28;20026;-76
2023/01/22 12:43:20;;;;;;;2.33;1.45;;;;;;;;;;5061799;28;20409;-76
2023/01/22 12:45:55;;;;;;;1.95;1.38;;;;;;;;;;5052799;28;20115;-76
2023/01/22 12:48:28;;;;;;;3.72;1.67;;;;;;;;;;5061600;28;20437;-72
2023/01/22 12:50:55;;;;;;;2.63;1.60;;;;;;;;;;5060300;28;20025;-72
2023/01/22 12:53:25;;;;;;;3.17;1.90;;;;;;;;;;5050318;28;20035;-73
2023/01/22 12:56:08;;;;;;;2.70;1.42;;;;;;;;;;5064230;28;20029;-74
2023/01/22 12:58:38;;;;;;;1.98;1.27;;;;;;;;;;5063568;28;20115;-75
2023/01/22 13:01:12;;;;;;;1.88;1.40;;;;;;;;;;5062768;28;20025;-73
2023/01/22 13:03:39;;;;;;;2.65;1.80;;;;;;;;;;5058387;28;20074;-73
2023/01/22 13:06:19;;;;;;;2.40;1.48;;;;;;;;;;5054977;28;20029;-73
2023/01/22 13:08:45;;;;;;;3.20;1.75;;;;;;;;;;5050845;28;20682;-73
2023/01/22 13:11:26;;;;;;;2.08;1.35;;;;;;;;;;5046909;28;20051;-72
2023/01/22 13:13:52;;;;;;;;;;;;;;;;;;5047459;28;20083;-71
2023/01/22 13:16:21;;;;;;;2.72;1.30;;;;;;;;;;5050739;28;19944;-78
2023/01/22 13:18:48;;;;;;;5.53;1.65;;;;;;;;;;5049053;28;20066;-76
2023/01/22 13:21:16;;;;;;;3.08;1.70;;;;;;;;;;5049539;28;20040;-75
2023/01/22 13:23:46;;;;;;;3.08;1.20;;;;;;;;;;5051716;28;20461;-76
2023/01/22 13:26:20;;;;;;;2.08;1.50;;;;;;;;;;5047604;28;20078;-74
2023/01/22 13:28:53;;;;;;;2.25;1.35;;;;;;;;;;5047847;28;20033;-75
2023/01/22 13:31:19;;;;;;;1.73;1.42;;;;;;;;;;5051397;28;20489;-73
2023/01/22 13:34:08;;;;;;;3.33;1.70;;;;;;;;;;5045895;28;20025;-73
2023/01/22 13:36:39;;;;;;;2.58;1.63;;;;;;;;;;5046161;28;20025;-74
2023/01/22 13:39:05;;;;;;;3.40;1.65;;;;;;;;;;5052017;28;20028;-75
2023/01/22 13:41:35;;;;;;;2.25;1.73;;;;;;;;;;5052355;28;20488;-75
2023/01/22 13:44:02;;;;;;;3.13;1.80;;;;;;;;;;5053892;28;20028;-75
2023/01/22 13:46:27;;;;;;;4.20;1.50;;;;;;;;;;5049781;28;20029;-75
2023/01/22 13:49:01;;;;;;;1.65;1.30;;;;;;;;;;5058860;28;20024;-73
2023/01/22 13:51:27;;;;;;;3.95;1.73;;;;;;;;;;5046274;28;20024;-74
2023/01/22 13:53:54;;;;;;;2.67;1.98;;;;;;;;;;5046693;28;20029;-80
2023/01/22 13:56:21;;;;;;;3.30;1.83;;;;;;;;;;5050657;28;20123;-76
2023/01/22 13:58:47;;;;;;;1.95;1.48;;;;;;;;;;5043103;28;20368;-74
2023/01/22 14:01:25;;;;;;;2.33;1.60;;;;;;;;;;5048930;28;20032;-73
2023/01/22 14:03:58;;;;;;;3.88;2.00;;;;;;;;;;5043962;28;20085;-73
2023/01/22 14:06:24;;;;;;;2.85;1.70;;;;;;;;;;5052489;28;20056;-74
2023/01/22 14:08:51;;;;;;;2.92;1.58;;;;;;;;;;5049355;28;20596;-75
2023/01/22 14:11:17;;;;;;;2.92;1.88;;;;;;;;;;5050976;28;20036;-74
2023/01/22 14:13:44;;;;;;;3.45;1.75;;;;;;;;;;5051363;28;20082;-75
2023/01/22 14:16:10;;;;;;;3.53;1.70;;;;;;;;;;5051045;28;20030;-74
2023/01/22 14:18:36;;;;;;;2.90;1.70;;;;;;;;;;5049311;28;20037;-75
2023/01/22 14:21:02;;;;;;;3.33;1.70;;;;;;;;;;5050468;28;20029;-75
2023/01/22 14:23:29;;;;;;;2.88;1.70;;;;;;;;;;5043143;28;20039;-75
2023/01/22 14:25:55;;;;;;;2.38;1.50;;;;;;;;;;5045312;28;20032;-74
2023/01/22 14:28:22;;;;;;;2.47;1.95;;;;;;;;;;5047512;28;20039;-74
2023/01/22 14:30:48;;;;;;;3.25;2.13;;;;;;;;;;5053512;28;20116;-75
2023/01/22 14:33:16;;;;;;;3.28;1.80;;;;;;;;;;5051301;28;20021;-74
2023/01/22 14:35:42;;;;;;;2.45;1.80;;;;;;;;;;5048694;28;20140;-76
2023/01/22 14:38:08;;;;;;;3.17;1.85;;;;;;;;;;5047800;28;20108;-73
2023/01/22 14:40:34;;;;;;;4.53;1.63;;;;;;;;;;5045698;28;20499;-74
2023/01/22 14:43:00;;;;;;;3.78;1.73;;;;;;;;;;5045543;28;20624;-73
2023/01/22 14:45:26;;;;;;;3.15;1.73;;;;;;;;;;5046234;28;20804;-73
2023/01/22 14:47:52;;;;;;;3.40;1.77;;;;;;;;;;5046067;28;20043;-73
2023/01/22 14:50:19;;;;;;;3.20;2.03;;;;;;;;;;5045576;28;20052;-72
2023/01/22 14:52:45;;;;;;;3.15;1.65;;;;;;;;;;5050676;28;20024;-74
2023/01/22 14:55:11;;;;;;;3.55;1.77;;;;;;;;;;5045942;28;20112;-73
2023/01/22 14:57:37;;;;;;;3.45;1.95;;;;;;;;;;5045318;28;20095;-74